createdAt,value
2023-12-30T00:04:46.668Z,4.50
2023-12-30T00:09:49.597Z,4.63
2023-12-30T00:14:52.765Z,4.40
2023-12-30T00:19:57.803Z,3.25
2023-12-30T00:25:01.387Z,3.28
2023-12-30T00:30:05.536Z,3.80
2023-12-30T00:35:10.364Z,3.67
2023-12-30T00:40:13.653Z,3.58
2023-12-30T00:45:17.467Z,3.35
2023-12-30T00:50:20.001Z,3.03
2023-12-30T00:55:23.414Z,3.10
2023-12-30T01:00:26.162Z,3.08
2023-12-30T01:05:28.758Z,2.85
2023-12-30T01:10:32.384Z,2.92
2023-12-30T01:15:36.377Z,3.03
2023-12-30T01:20:39.141Z,2.78
2023-12-30T01:25:43.918Z,2.80
2023-12-30T01:30:46.582Z,2.58
2023-12-30T01:35:49.149Z,2.20
2023-12-30T01:40:51.811Z,2.55
2023-12-30T01:45:58.821Z,2.28
2023-12-30T01:51:03.505Z,2.45
2023-12-30T01:56:07.276Z,2.50
2023-12-30T02:01:12.016Z,3.05
2023-12-30T02:06:14.693Z,2.53
2023-12-30T02:11:17.463Z,2.95
2023-12-30T02:16:20.293Z,3.20
2023-12-30T02:21:23.822Z,3.58
2023-12-30T02:26:26.395Z,3.80
2023-12-30T02:31:29.148Z,4.15
2023-12-30T02:36:31.744Z,4.03
2023-12-30T02:41:34.946Z,3.67
2023-12-30T02:46:37.585Z,3.50
2023-12-30T02:51:40.215Z,4.68
2023-12-30T02:56:42.861Z,3.95
2023-12-30T03:01:45.518Z,2.72
2023-12-30T03:06:48.275Z,4.40
2023-12-30T03:11:50.889Z,4.10
2023-12-30T03:16:53.967Z,5.15
2023-12-30T03:21:56.713Z,4.70
2023-12-30T03:26:59.405Z,4.05
2023-12-30T03:32:02.712Z,4.20
2023-12-30T03:37:05.326Z,4.07
2023-12-30T03:42:08.144Z,3.88
2023-12-30T03:47:10.804Z,4.50
2023-12-30T03:52:13.563Z,6.03
2023-12-30T03:57:16.394Z,5.18
2023-12-30T04:02:22.591Z,5.07
2023-12-30T04:07:25.392Z,5.55
2023-12-30T04:12:28.201Z,6.22
2023-12-30T04:17:30.923Z,6.20
2023-12-30T04:22:35.121Z,6.80
2023-12-30T04:27:37.887Z,6.20
2023-12-30T04:32:40.789Z,5.40
2023-12-30T04:37:43.480Z,5.93
2023-12-30T04:42:46.100Z,7.63
2023-12-30T04:47:49.040Z,6.53
2023-12-30T04:52:51.798Z,8.48
2023-12-30T04:57:54.571Z,9.18
2023-12-30T05:02:57.700Z,8.93
2023-12-30T05:08:02.760Z,10.07
2023-12-30T05:13:06.402Z,10.02
2023-12-30T05:18:09.234Z,9.63
2023-12-30T05:23:11.808Z,9.25
2023-12-30T05:28:14.575Z,8.95
2023-12-30T05:33:17.233Z,8.77
2023-12-30T05:38:20.181Z,10.95
2023-12-30T05:43:24.424Z,10.23
2023-12-30T05:48:28.257Z,8.00
2023-12-30T05:53:30.926Z,10.60
2023-12-30T05:58:36.333Z,12.13
2023-12-30T06:08:41.530Z,12.13
2023-12-30T06:13:44.311Z,11.13
2023-12-30T06:18:46.943Z,11.65
2023-12-30T06:23:49.643Z,12.02
2023-12-30T06:28:52.580Z,11.00
2023-12-30T06:33:55.491Z,10.65
2023-12-30T06:38:58.180Z,11.13
2023-12-30T06:44:00.796Z,7.88
2023-12-30T06:49:03.587Z,9.93
2023-12-30T06:54:07.240Z,10.85
2023-12-30T06:59:12.630Z,10.90
2023-12-30T07:04:15.832Z,9.02
2023-12-30T07:09:18.536Z,9.00
2023-12-30T07:14:21.195Z,10.07
2023-12-30T07:19:23.963Z,7.97
2023-12-30T07:24:26.855Z,9.70
2023-12-30T07:29:29.586Z,9.20
2023-12-30T07:34:32.276Z,12.25
2023-12-30T07:39:34.847Z,11.10
2023-12-30T07:44:39.543Z,8.25
2023-12-30T07:49:42.349Z,8.13
2023-12-30T07:54:45.002Z,8.65
2023-12-30T07:59:48.121Z,7.03
2023-12-30T08:04:50.832Z,9.85
2023-12-30T08:09:53.648Z,7.10
2023-12-30T08:14:56.443Z,7.00
2023-12-30T08:19:59.269Z,9.00
2023-12-30T08:25:02.173Z,9.18
2023-12-30T08:30:07.249Z,10.85
2023-12-30T08:35:11.810Z,8.05
2023-12-30T08:40:16.212Z,10.48
2023-12-30T08:45:21.507Z,8.68
2023-12-30T08:55:26.922Z,9.05
2023-12-30T09:00:29.793Z,6.75
2023-12-30T09:05:34.053Z,6.75
2023-12-30T09:10:36.923Z,8.05
2023-12-30T09:15:40.473Z,9.82
2023-12-30T09:20:44.313Z,7.25
2023-12-30T09:25:48.041Z,8.63
2023-12-30T09:30:51.178Z,5.07
2023-12-30T09:35:56.366Z,7.68
2023-12-30T09:46:06.213Z,6.28
2023-12-30T09:51:10.395Z,8.13
2023-12-30T09:56:13.836Z,4.78
2023-12-30T10:01:18.090Z,4.97
2023-12-30T10:06:23.456Z,6.07
2023-12-30T10:11:26.521Z,6.05
2023-12-30T10:16:31.280Z,6.32
2023-12-30T10:21:34.251Z,5.82
2023-12-30T10:26:41.347Z,7.97
2023-12-30T10:31:44.495Z,6.90
2023-12-30T10:36:47.965Z,8.52
2023-12-30T10:41:50.704Z,8.60
2023-12-30T10:46:55.231Z,6.82
2023-12-30T10:52:05.328Z,8.50
2023-12-30T10:57:16.248Z,8.50
2023-12-30T11:02:19.130Z,7.95
2023-12-30T11:07:22.559Z,8.07
2023-12-30T11:12:29.211Z,6.82
2023-12-30T11:17:36.289Z,7.70
2023-12-30T11:22:38.941Z,7.13
2023-12-30T11:27:41.832Z,6.78
2023-12-30T11:32:47.151Z,6.90
2023-12-30T11:37:55.991Z,6.38
2023-12-30T11:42:58.906Z,7.53
2023-12-30T11:48:01.524Z,6.95
2023-12-30T11:53:04.944Z,7.72
2023-12-30T11:58:08.463Z,7.70
2023-12-30T12:03:12.128Z,6.43
2023-12-30T12:08:14.865Z,7.97
2023-12-30T12:13:25.169Z,7.55
2023-12-30T12:18:28.316Z,7.20
2023-12-30T12:23:32.355Z,7.75
2023-12-30T12:28:37.034Z,6.78
2023-12-30T12:33:40.374Z,6.97
2023-12-30T12:38:43.554Z,5.05
2023-12-30T12:43:46.432Z,6.10
2023-12-30T12:48:50.255Z,5.90
2023-12-30T12:53:53.577Z,7.05
2023-12-30T12:58:57.364Z,8.27
2023-12-30T13:04:00.581Z,9.27
2023-12-30T13:09:21.227Z,7.90
2023-12-30T13:14:28.321Z,7.95
2023-12-30T13:19:32.746Z,7.15
2023-12-30T13:24:36.062Z,8.40
2023-12-30T13:29:38.761Z,7.97
2023-12-30T13:34:42.143Z,7.95
2023-12-30T13:39:45.416Z,7.72
2023-12-30T13:44:48.897Z,8.82
2023-12-30T13:50:06.882Z,11.65
2023-12-30T13:55:15.384Z,10.23
2023-12-30T14:00:19.806Z,10.40
2023-12-30T14:05:32.060Z,10.93
2023-12-30T14:10:34.942Z,10.57
2023-12-30T14:15:37.685Z,9.35
2023-12-30T14:20:41.296Z,13.15
2023-12-30T14:25:46.291Z,10.07
2023-12-30T14:30:49.327Z,10.32
2023-12-30T14:35:55.105Z,8.45
2023-12-30T14:40:57.867Z,11.65
2023-12-30T14:46:01.260Z,11.73
2023-12-30T14:51:06.288Z,12.27
2023-12-30T14:56:09.902Z,15.45
2023-12-30T15:01:12.956Z,15.50
2023-12-30T15:06:16.433Z,14.43
2023-12-30T15:11:19.357Z,14.90
2023-12-30T15:16:23.623Z,8.00
2023-12-30T15:21:26.854Z,12.65
2023-12-30T15:26:30.959Z,12.63
2023-12-30T15:31:34.041Z,12.25
2023-12-30T15:36:37.070Z,13.25
2023-12-30T15:41:39.947Z,13.30
2023-12-30T15:46:44.323Z,14.23
2023-12-30T15:51:47.164Z,10.98
2023-12-30T15:56:53.494Z,11.73
2023-12-30T16:01:56.152Z,14.15
2023-12-30T16:06:59.224Z,10.23
2023-12-30T16:12:01.964Z,12.85
2023-12-30T16:17:04.913Z,14.25
2023-12-30T16:22:07.999Z,13.57
2023-12-30T16:27:12.114Z,12.52
2023-12-30T16:32:14.920Z,13.50
2023-12-30T16:37:17.845Z,13.73
2023-12-30T16:42:20.415Z,14.10
2023-12-30T16:47:23.789Z,12.40
2023-12-30T16:52:26.408Z,14.10
2023-12-30T16:57:29.448Z,13.77
2023-12-30T17:02:32.454Z,14.13
2023-12-30T17:07:36.380Z,14.27
2023-12-30T17:12:39.253Z,15.02
2023-12-30T17:17:42.421Z,14.85
2023-12-30T17:22:45.032Z,15.60
2023-12-30T17:27:48.302Z,13.88
2023-12-30T17:32:51.545Z,15.25
2023-12-30T17:37:55.046Z,15.55
2023-12-30T17:42:58.068Z,14.63
2023-12-30T17:48:01.278Z,15.85
2023-12-30T17:53:04.329Z,14.18
2023-12-30T17:58:07.608Z,14.30
2023-12-30T18:03:10.426Z,14.05
2023-12-30T18:08:13.793Z,14.15
2023-12-30T18:13:16.975Z,13.52
2023-12-30T18:18:20.056Z,14.30
2023-12-30T18:23:22.959Z,13.90
2023-12-30T18:28:26.115Z,11.90
2023-12-30T18:33:29.065Z,11.35
2023-12-30T18:38:32.461Z,13.98
2023-12-30T18:43:36.327Z,15.55
2023-12-30T18:48:39.567Z,13.57
2023-12-30T18:53:42.355Z,12.63
2023-12-30T18:58:46.650Z,13.15
2023-12-30T19:03:49.750Z,12.27
2023-12-30T19:08:52.847Z,14.00
2023-12-30T19:13:55.646Z,13.15
2023-12-30T19:18:59.149Z,14.23
2023-12-30T19:24:05.601Z,13.55
2023-12-30T19:29:08.695Z,14.90
2023-12-30T19:34:11.529Z,13.90
2023-12-30T19:39:16.182Z,13.88
2023-12-30T19:44:19.522Z,13.43
2023-12-30T19:49:22.518Z,14.98
2023-12-30T19:54:27.084Z,13.80
2023-12-30T19:59:30.497Z,13.95
2023-12-30T20:04:33.587Z,14.75
2023-12-30T20:09:37.628Z,13.88
2023-12-30T20:14:40.387Z,14.80
2023-12-30T20:19:43.501Z,14.13
2023-12-30T20:24:46.388Z,14.07
2023-12-30T20:29:50.910Z,14.23
2023-12-30T20:34:54.267Z,13.75
2023-12-30T20:39:57.159Z,12.35
2023-12-30T20:44:59.729Z,13.50
2023-12-30T20:50:03.936Z,14.43
2023-12-30T20:55:07.955Z,13.10
2023-12-30T21:00:12.470Z,14.18
2023-12-30T21:05:16.421Z,13.13
2023-12-30T21:10:19.667Z,13.95
2023-12-30T21:15:22.491Z,13.05
2023-12-30T21:20:25.651Z,13.23
2023-12-30T21:25:28.582Z,14.15
2023-12-30T21:30:31.630Z,15.98
2023-12-30T21:35:34.265Z,10.73
2023-12-30T21:40:37.205Z,13.40
2023-12-30T21:45:39.980Z,12.63
2023-12-30T21:50:43.717Z,11.57
2023-12-30T21:55:46.742Z,13.48
2023-12-30T22:00:49.760Z,14.32
2023-12-30T22:05:52.458Z,13.27
2023-12-30T22:10:55.294Z,10.88
2023-12-30T22:15:58.666Z,12.63
2023-12-30T22:21:01.455Z,13.77
2023-12-30T22:26:04.192Z,8.88
2023-12-30T22:31:10.701Z,14.68
2023-12-30T22:36:13.465Z,14.60
2023-12-30T22:41:17.403Z,14.43
2023-12-30T22:46:20.170Z,15.15
2023-12-30T22:51:23.690Z,13.30
2023-12-30T22:56:28.093Z,8.75
2023-12-30T23:01:31.187Z,12.98
2023-12-30T23:06:34.092Z,11.32
2023-12-30T23:11:37.908Z,10.43
2023-12-30T23:16:41.739Z,10.30
2023-12-30T23:21:44.689Z,13.90
2023-12-30T23:26:48.274Z,12.85
2023-12-30T23:31:51.571Z,13.18
2023-12-30T23:36:54.497Z,11.73
2023-12-30T23:41:57.580Z,11.43
2023-12-30T23:47:01.344Z,13.65
2023-12-30T23:52:04.404Z,9.18
2023-12-30T23:57:07.175Z,13.82
